Time;durP1;ratioP1;P1;durP2;ratioP2;P2;SDS_P1;SDS_P2;PMS_P1;PMS_P2;Temp;Humidity;BMP_temperature;BMP_pressure;BME280_temperature;BME280_humidity;BME280_pressure;Samples;Min_cycle;Max_cycle;Signal;HPM_P1;HPM_P2
2021/05/17 00:01:19;;;;;;;0.10;0.10;;;12.90;76.10;;;;;;4861351;29;20056;-74
2021/05/17 00:03:49;;;;;;;0.00;0.00;;;12.90;76.20;;;;;;4861573;29;20056;-74
2021/05/17 00:06:16;;;;;;;0.00;0.00;;;12.90;76.20;;;;;;4870850;29;20091;-74
2021/05/17 00:08:45;;;;;;;0.10;0.10;;;12.90;76.20;;;;;;4879734;29;20053;-74
2021/05/17 00:11:12;;;;;;;0.10;0.10;;;12.90;76.20;;;;;;4880012;29;20136;-74
2021/05/17 00:13:39;;;;;;;0.10;0.10;;;12.90;76.20;;;;;;4879733;29;20061;-74
2021/05/17 00:16:05;;;;;;;0.00;0.00;;;12.90;76.20;;;;;;4872376;29;20053;-74
2021/05/17 00:18:32;;;;;;;0.10;0.10;;;12.90;76.20;;;;;;4875095;29;20523;-74
2021/05/17 00:20:59;;;;;;;0.05;0.05;;;12.90;76.30;;;;;;4866885;29;20209;-74
2021/05/17 00:23:25;;;;;;;0.00;0.00;;;12.90;76.30;;;;;;4864926;29;20260;-74
2021/05/17 00:25:52;;;;;;;0.03;0.03;;;12.90;76.20;;;;;;4879536;29;20181;-74
2021/05/17 00:28:18;;;;;;;0.10;0.10;;;13.00;76.70;;;;;;4867821;29;20045;-74
2021/05/17 00:30:45;;;;;;;0.10;0.10;;;12.90;76.40;;;;;;4860944;29;20053;-74
2021/05/17 00:33:12;;;;;;;0.05;0.05;;;12.90;76.50;;;;;;4860874;29;20411;-74
2021/05/17 00:35:38;;;;;;;0.00;0.00;;;12.90;76.50;;;;;;4860573;29;20049;-74
2021/05/17 00:38:05;;;;;;;0.10;0.10;;;12.90;76.40;;;;;;4872254;29;20430;-74
2021/05/17 00:40:31;;;;;;;0.00;0.00;;;12.90;76.40;;;;;;4874465;29;20053;-74
2021/05/17 00:42:58;;;;;;;0.00;0.00;;;12.90;76.40;;;;;;4860494;29;20109;-74
2021/05/17 00:45:26;;;;;;;0.10;0.10;;;12.90;76.50;;;;;;4860612;29;20137;-74
2021/05/17 00:47:54;;;;;;;0.10;0.10;;;12.80;76.40;;;;;;4860350;29;20501;-74
2021/05/17 00:50:25;;;;;;;0.03;0.03;;;12.80;76.50;;;;;;4860376;29;20426;-74
2021/05/17 00:52:55;;;;;;;0.08;0.08;;;12.80;76.50;;;;;;4860142;29;20053;-74
2021/05/17 00:55:23;;;;;;;0.10;0.10;;;12.80;76.50;;;;;;4863958;29;20061;-74
2021/05/17 00:57:50;;;;;;;0.00;0.00;;;12.80;76.40;;;;;;4878195;29;20147;-74
2021/05/17 01:00:22;;;;;;;0.00;0.00;;;12.80;76.40;;;;;;4879048;29;20087;-74
2021/05/17 01:02:49;;;;;;;0.08;0.08;;;12.80;76.40;;;;;;4878789;29;20056;-74
2021/05/17 01:05:16;;;;;;;0.00;0.00;;;12.80;76.50;;;;;;4879060;29;20060;-74
2021/05/17 01:07:46;;;;;;;0.00;0.00;;;12.70;76.50;;;;;;4878603;29;20053;-74
2021/05/17 01:10:17;;;;;;;0.10;0.10;;;12.70;76.50;;;;;;4871905;29;20162;-74
2021/05/17 01:12:44;;;;;;;;;;;12.80;76.70;;;;;;4860320;29;20059;-74
2021/05/17 01:15:11;;;;;;;0.10;0.10;;;12.80;77.00;;;;;;4859953;29;20053;-74
2021/05/17 01:17:38;;;;;;;0.00;0.00;;;12.70;76.80;;;;;;4859266;29;20639;-74
2021/05/17 01:20:05;;;;;;;0.00;0.00;;;12.70;76.90;;;;;;4860285;29;20108;-74
2021/05/17 01:25:27;;;;;;;0.00;0.00;;;12.60;77.30;;;;;;4855135;29;20053;-74
2021/05/17 01:27:56;;;;;;;0.00;0.00;;;12.60;77.50;;;;;;4859818;29;20136;-74
2021/05/17 01:30:23;;;;;;;0.10;0.10;;;12.60;77.50;;;;;;4859920;29;20049;-74
2021/05/17 01:32:55;;;;;;;0.10;0.10;;;12.60;77.60;;;;;;4859577;29;20182;-74
2021/05/17 01:35:22;;;;;;;0.10;0.10;;;12.60;77.70;;;;;;4859541;29;20102;-74
2021/05/17 01:37:51;;;;;;;0.10;0.10;;;12.60;77.70;;;;;;4859637;29;20069;-74
2021/05/17 01:40:21;;;;;;;0.00;0.00;;;12.70;78.00;;;;;;4860051;29;20061;-74
2021/05/17 01:42:48;;;;;;;0.08;0.08;;;12.60;77.90;;;;;;4870250;29;20131;-74
2021/05/17 01:45:15;;;;;;;0.00;0.00;;;12.60;77.90;;;;;;4874350;29;20049;-74
2021/05/17 01:47:42;;;;;;;0.00;0.00;;;12.60;77.90;;;;;;4859289;29;20064;-74
2021/05/17 01:50:11;;;;;;;0.00;0.00;;;12.60;77.90;;;;;;4859601;29;20062;-74
2021/05/17 01:52:38;;;;;;;0.00;0.00;;;12.70;77.90;;;;;;4860027;29;20064;-74
2021/05/17 01:55:11;;;;;;;0.00;0.00;;;12.70;77.80;;;;;;4859520;29;20061;-74
2021/05/17 01:57:38;;;;;;;0.00;0.00;;;12.60;77.80;;;;;;4859554;29;20053;-74
2021/05/17 02:00:07;;;;;;;0.08;0.08;;;12.70;78.00;;;;;;4866682;29;20060;-74
2021/05/17 02:02:36;;;;;;;0.05;0.05;;;12.60;77.90;;;;;;4872522;29;20052;-74
2021/05/17 02:05:04;;;;;;;0.10;0.10;;;12.70;78.00;;;;;;4859489;29;20053;-74
2021/05/17 02:07:31;;;;;;;0.10;0.10;;;12.60;77.90;;;;;;4860376;29;20154;-74
2021/05/17 02:09:59;;;;;;;0.00;0.00;;;12.60;78.00;;;;;;4863416;29;20145;-74
2021/05/17 02:12:27;;;;;;;0.00;0.00;;;12.60;78.00;;;;;;4863135;29;20169;-74
2021/05/17 02:14:54;;;;;;;0.00;0.00;;;12.60;78.20;;;;;;4862924;29;20141;-74
2021/05/17 02:17:23;;;;;;;0.05;0.05;;;12.60;78.30;;;;;;4862890;29;20153;-74
2021/05/17 02:19:49;;;;;;;0.03;0.03;;;12.60;78.60;;;;;;4863062;29;20053;-74
2021/05/17 02:22:18;;;;;;;0.00;0.00;;;12.50;79.70;;;;;;4862953;29;20409;-74
2021/05/17 02:24:46;;;;;;;0.00;0.00;;;12.50;79.00;;;;;;4862826;29;20417;-71
2021/05/17 02:27:14;;;;;;;0.10;0.10;;;12.50;79.20;;;;;;4863006;29;20421;-74
2021/05/17 02:29:41;;;;;;;0.00;0.00;;;12.50;79.30;;;;;;4862831;29;20132;-74
2021/05/17 02:32:08;;;;;;;0.00;0.00;;;12.50;79.40;;;;;;4862932;29;20060;-74
2021/05/17 02:34:35;;;;;;;0.00;0.00;;;12.40;79.50;;;;;;4862647;29;20054;-74
2021/05/17 02:37:02;;;;;;;0.00;0.00;;;12.50;79.70;;;;;;4862918;29;20091;-74
2021/05/17 02:39:29;;;;;;;0.00;0.00;;;12.40;79.60;;;;;;4862687;29;20514;-74
2021/05/17 02:41:56;;;;;;;0.00;0.00;;;12.40;79.60;;;;;;4862516;29;20467;-74
2021/05/17 02:44:23;;;;;;;0.00;0.00;;;12.40;79.70;;;;;;4845833;29;20049;-74
2021/05/17 02:46:55;;;;;;;0.03;0.03;;;12.40;79.80;;;;;;4864640;29;20060;-74
2021/05/17 02:49:22;;;;;;;0.00;0.00;;;12.40;79.70;;;;;;4862255;29;20490;-74
2021/05/17 02:51:51;;;;;;;0.10;0.10;;;12.40;79.70;;;;;;4862713;29;20260;-74
2021/05/17 02:54:32;;;;;;;0.05;0.05;;;12.40;79.70;;;;;;4874323;29;20057;-74
2021/05/17 02:56:58;;;;;;;0.00;0.00;;;12.40;79.50;;;;;;4871039;29;20136;-74
2021/05/17 02:59:37;;;;;;;0.08;0.08;;;12.40;79.40;;;;;;4862647;29;20536;-74
2021/05/17 03:02:08;;;;;;;0.00;0.00;;;12.40;79.30;;;;;;4862256;29;20083;-74
2021/05/17 03:04:40;;;;;;;0.10;0.10;;;12.40;79.20;;;;;;4862349;29;20141;-74
2021/05/17 03:07:10;;;;;;;0.00;0.00;;;12.40;79.20;;;;;;4847830;29;20713;-74
2021/05/17 03:09:38;;;;;;;0.10;0.10;;;12.40;79.00;;;;;;4862493;29;20053;-74
2021/05/17 03:12:08;;;;;;;0.00;0.00;;;12.40;78.70;;;;;;4862384;29;20148;-74
2021/05/17 03:14:36;;;;;;;0.00;0.00;;;12.40;78.60;;;;;;4862573;29;20132;-74
2021/05/17 03:17:02;;;;;;;0.00;0.00;;;12.40;78.40;;;;;;4861416;29;20140;-74
2021/05/17 03:19:29;;;;;;;0.10;0.10;;;12.40;78.30;;;;;;4844022;29;20573;-74
2021/05/17 03:21:58;;;;;;;0.08;0.08;;;12.50;78.30;;;;;;4862000;29;20049;-74
2021/05/17 03:24:26;;;;;;;0.10;0.10;;;12.40;78.10;;;;;;4861921;29;20441;-74
2021/05/17 03:26:55;;;;;;;0.00;0.00;;;12.50;78.00;;;;;;4861868;29;20049;-74
2021/05/17 03:29:21;;;;;;;0.00;0.00;;;12.50;78.00;;;;;;4862107;29;20195;-74
2021/05/17 03:31:47;;;;;;;0.00;0.00;;;12.50;78.80;;;;;;4861619;29;20061;-74
2021/05/17 03:34:14;;;;;;;0.00;0.00;;;12.50;77.80;;;;;;4861064;29;20105;-74
2021/05/17 03:36:40;;;;;;;0.00;0.00;;;12.50;77.80;;;;;;4861788;29;20136;-74
2021/05/17 03:39:06;;;;;;;0.00;0.00;;;12.50;77.70;;;;;;4861706;29;20193;-74
2021/05/17 03:41:33;;;;;;;0.08;0.08;;;12.50;77.70;;;;;;4861615;29;20053;-74
2021/05/17 03:43:59;;;;;;;0.00;0.00;;;12.50;77.60;;;;;;4861814;29;20128;-74
2021/05/17 03:46:25;;;;;;;0.10;0.10;;;12.50;77.60;;;;;;4861414;29;20113;-74
2021/05/17 03:48:51;;;;;;;0.00;0.00;;;12.50;77.60;;;;;;4865280;29;20072;-74
2021/05/17 03:51:18;;;;;;;0.10;0.10;;;12.50;77.60;;;;;;4868367;29;20129;-74
2021/05/17 03:53:44;;;;;;;0.00;0.00;;;12.50;77.70;;;;;;4861200;29;20099;-74
2021/05/17 03:56:10;;;;;;;0.10;0.10;;;12.50;77.70;;;;;;4861639;29;20053;-74
2021/05/17 03:58:37;;;;;;;0.00;0.00;;;12.50;77.70;;;;;;4879171;29;20052;-74
2021/05/17 04:01:04;;;;;;;0.08;0.08;;;12.40;77.70;;;;;;4879720;29;20139;-74
2021/05/17 04:03:31;;;;;;;0.00;0.00;;;12.40;77.70;;;;;;4880076;29;20466;-74
2021/05/17 04:13:41;;;;;;;0.00;0.00;;;12.40;77.80;;;;;;4849627;29;20096;-74
2021/05/17 04:16:07;;;;;;;0.10;0.10;;;12.40;77.80;;;;;;4860540;29;20194;-74
2021/05/17 04:18:34;;;;;;;0.10;0.10;;;12.30;77.80;;;;;;4861460;29;20450;-74
2021/05/17 04:21:00;;;;;;;0.10;0.10;;;12.40;78.70;;;;;;4879360;29;20085;-74
2021/05/17 04:23:28;;;;;;;0.00;0.00;;;12.40;77.70;;;;;;4879673;29;20128;-74
2021/05/17 04:25:55;;;;;;;0.10;0.10;;;12.40;77.70;;;;;;4879600;29;20105;-74
2021/05/17 04:28:21;;;;;;;0.10;0.10;;;12.40;77.70;;;;;;4879369;29;20045;-73
2021/05/17 04:30:47;;;;;;;0.00;0.00;;;12.40;77.70;;;;;;4879371;29;20128;-74
2021/05/17 04:33:14;;;;;;;0.10;0.10;;;12.30;77.70;;;;;;4879272;29;20093;-74
2021/05/17 04:35:40;;;;;;;0.00;0.00;;;12.30;77.80;;;;;;4877524;29;20060;-74
2021/05/17 04:38:07;;;;;;;0.00;0.00;;;12.30;77.80;;;;;;4879293;29;20132;-74
2021/05/17 04:40:33;;;;;;;0.05;0.05;;;12.30;77.80;;;;;;4879508;29;20053;-74
2021/05/17 04:42:59;;;;;;;0.00;0.00;;;12.30;77.90;;;;;;4879340;29;20049;-74
2021/05/17 04:45:26;;;;;;;0.03;0.03;;;12.30;77.90;;;;;;4879103;29;20048;-73
2021/05/17 04:47:53;;;;;;;0.10;0.10;;;12.30;78.00;;;;;;4879284;29;20132;-74
2021/05/17 04:50:20;;;;;;;0.00;0.00;;;12.30;78.00;;;;;;4879032;29;20067;-73
2021/05/17 04:52:46;;;;;;;0.00;0.00;;;12.30;78.10;;;;;;4875343;29;20061;-74
2021/05/17 04:55:13;;;;;;;0.00;0.00;;;12.30;78.10;;;;;;4860297;29;20136;-74
2021/05/17 04:57:39;;;;;;;0.03;0.03;;;12.30;78.20;;;;;;4860444;29;20053;-74
2021/05/17 05:00:07;;;;;;;0.10;0.10;;;12.30;78.10;;;;;;4859375;29;20109;-74
2021/05/17 05:02:34;;;;;;;0.10;0.10;;;12.40;78.10;;;;;;4860448;29;20053;-74
2021/05/17 05:05:00;;;;;;;0.10;0.10;;;12.40;78.00;;;;;;4860364;29;20186;-74
2021/05/17 05:07:27;;;;;;;0.00;0.00;;;12.40;78.00;;;;;;4860105;29;20050;-73
2021/05/17 05:09:53;;;;;;;0.00;0.00;;;12.40;77.90;;;;;;4859890;29;20053;-74
2021/05/17 05:12:19;;;;;;;0.00;0.00;;;12.40;77.90;;;;;;4859595;29;20053;-74
2021/05/17 05:14:46;;;;;;;0.10;0.10;;;12.40;77.80;;;;;;4858893;29;20049;-74
2021/05/17 05:17:12;;;;;;;0.00;0.00;;;12.50;77.90;;;;;;4859613;29;20650;-74
2021/05/17 05:19:38;;;;;;;0.10;0.10;;;12.50;77.90;;;;;;4860202;29;20132;-74
2021/05/17 05:22:05;;;;;;;0.10;0.10;;;12.50;77.90;;;;;;4859741;29;20064;-74
2021/05/17 05:24:31;;;;;;;0.03;0.03;;;12.50;77.80;;;;;;4858957;29;20056;-73
2021/05/17 05:27:22;;;;;;;0.08;0.08;;;12.60;77.90;;;;;;4858403;29;20078;-74
2021/05/17 05:30:00;;;;;;;0.10;0.10;;;12.60;77.80;;;;;;4856806;29;20542;-74
2021/05/17 05:35:27;;;;;;;0.00;0.00;;;12.70;77.50;;;;;;4818039;29;20137;-74
2021/05/17 05:37:54;;;;;;;0.10;0.10;;;12.70;77.40;;;;;;4820567;29;20137;-75
2021/05/17 05:40:20;;;;;;;0.00;0.00;;;12.70;77.40;;;;;;4820506;29;20062;-76
2021/05/17 05:42:46;;;;;;;0.00;0.00;;;12.80;77.50;;;;;;4819900;29;20050;-76
2021/05/17 05:45:13;;;;;;;0.00;0.00;;;12.80;77.40;;;;;;4819673;29;20423;-75
2021/05/17 05:47:39;;;;;;;0.00;0.00;;;12.80;77.40;;;;;;4817710;29;20050;-75
2021/05/17 05:50:06;;;;;;;0.03;0.03;;;12.80;77.40;;;;;;4820186;29;20054;-76
2021/05/17 05:52:32;;;;;;;0.10;0.10;;;12.90;77.40;;;;;;4819990;29;20554;-75
2021/05/17 05:55:05;;;;;;;0.10;0.10;;;12.90;77.30;;;;;;4817722;29;20050;-75
2021/05/17 05:57:40;;;;;;;0.10;0.10;;;12.90;77.20;;;;;;4820141;29;20066;-75
2021/05/17 06:00:08;;;;;;;0.10;0.10;;;13.00;77.10;;;;;;4818644;29;20101;-75
2021/05/17 06:02:34;;;;;;;0.00;0.00;;;13.00;77.00;;;;;;4820078;29;20168;-75
2021/05/17 06:05:00;;;;;;;0.00;0.00;;;13.00;76.70;;;;;;4820188;29;20114;-75
2021/05/17 06:07:27;;;;;;;0.00;0.00;;;13.10;76.60;;;;;;4820447;29;20054;-73
2021/05/17 06:09:53;;;;;;;0.00;0.00;;;13.10;76.50;;;;;;4845306;29;20502;-74
2021/05/17 06:12:21;;;;;;;0.00;0.00;;;13.10;76.50;;;;;;4843876;29;20121;-74
2021/05/17 06:14:52;;;;;;;0.00;0.00;;;13.20;76.30;;;;;;4859314;29;20053;-75
2021/05/17 06:17:19;;;;;;;0.00;0.00;;;13.20;76.00;;;;;;4862101;29;21219;-75
2021/05/17 06:19:45;;;;;;;0.00;0.00;;;13.30;76.00;;;;;;4859687;29;20530;-76
2021/05/17 06:22:12;;;;;;;0.10;0.10;;;13.30;75.90;;;;;;4859030;29;20536;-75
2021/05/17 06:24:38;;;;;;;0.00;0.00;;;13.30;75.40;;;;;;4860244;29;20049;-75
2021/05/17 06:27:05;;;;;;;0.00;0.00;;;13.30;75.50;;;;;;4859659;29;20132;-75
2021/05/17 06:29:32;;;;;;;0.00;0.00;;;13.40;75.60;;;;;;4860744;29;20159;-75
2021/05/17 06:31:58;;;;;;;0.10;0.10;;;13.40;75.70;;;;;;4856611;29;20046;-75
2021/05/17 06:34:24;;;;;;;0.00;0.00;;;13.50;75.60;;;;;;4858158;29;20125;-74
2021/05/17 06:36:51;;;;;;;0.00;0.00;;;13.50;75.40;;;;;;4858870;29;20057;-75
2021/05/17 06:39:17;;;;;;;0.00;0.00;;;13.50;75.20;;;;;;4858411;29;20136;-75
2021/05/17 06:41:43;;;;;;;0.00;0.00;;;13.50;75.20;;;;;;4857771;29;20132;-75
2021/05/17 06:44:10;;;;;;;0.00;0.00;;;13.60;75.10;;;;;;4858365;29;20056;-74
2021/05/17 06:46:37;;;;;;;0.10;0.10;;;13.60;73.90;;;;;;4857884;29;20046;-75
2021/05/17 06:49:04;;;;;;;0.00;0.00;;;13.60;74.20;;;;;;4860349;29;20543;-75
2021/05/17 06:51:31;;;;;;;0.00;0.00;;;13.60;74.30;;;;;;4864333;29;20105;-74
2021/05/17 06:53:59;;;;;;;0.10;0.10;;;13.60;73.80;;;;;;4858580;29;20053;-75
2021/05/17 06:56:54;;;;;;;0.00;0.00;;;13.70;73.70;;;;;;4865991;29;20089;-73
2021/05/17 06:59:22;;;;;;;0.00;0.00;;;13.70;73.60;;;;;;4861584;29;20518;-75
2021/05/17 07:01:49;;;;;;;0.00;0.00;;;13.70;73.60;;;;;;4861783;29;20132;-75
2021/05/17 07:04:16;;;;;;;0.10;0.10;;;13.80;73.50;;;;;;4861039;29;20193;-75
2021/05/17 07:07:00;;;;;;;0.10;0.10;;;13.80;73.50;;;;;;4862224;29;20517;-75
2021/05/17 07:12:14;;;;;;;0.03;0.03;;;13.90;72.50;;;;;;4859141;29;20141;-75
2021/05/17 07:14:41;;;;;;;0.00;0.00;;;14.00;72.60;;;;;;4853213;29;20516;-76
2021/05/17 07:17:07;;;;;;;0.00;0.00;;;14.10;72.20;;;;;;4869357;29;20576;-76
2021/05/17 07:19:34;;;;;;;0.00;0.00;;;14.10;72.10;;;;;;4865994;29;20136;-76
2021/05/17 07:24:46;;;;;;;0.10;0.10;;;14.30;71.50;;;;;;4867521;29;20116;-76
2021/05/17 07:27:12;;;;;;;0.00;0.00;;;14.50;71.10;;;;;;4858193;29;20479;-76
2021/05/17 07:29:39;;;;;;;0.00;0.00;;;14.60;70.30;;;;;;4858219;29;20438;-76
2021/05/17 07:32:09;;;;;;;0.00;0.00;;;14.60;70.10;;;;;;4858383;29;20430;-76
2021/05/17 07:34:36;;;;;;;0.00;0.00;;;14.60;69.10;;;;;;4858439;29;20057;-75
2021/05/17 07:37:04;;;;;;;0.00;0.00;;;14.60;69.70;;;;;;4857889;29;20537;-75
2021/05/17 07:39:30;;;;;;;0.00;0.00;;;14.50;69.30;;;;;;4857904;29;20194;-76
2021/05/17 07:41:57;;;;;;;0.00;0.00;;;14.50;69.50;;;;;;4858080;29;20429;-76
2021/05/17 07:44:23;;;;;;;0.00;0.00;;;14.50;69.40;;;;;;4843538;29;20060;-75
2021/05/17 07:46:50;;;;;;;0.00;0.00;;;14.60;68.80;;;;;;4857638;29;20052;-76
2021/05/17 07:49:19;;;;;;;0.00;0.00;;;14.70;68.30;;;;;;4858329;29;20062;-76
2021/05/17 07:51:46;;;;;;;0.10;0.10;;;14.70;68.00;;;;;;4860702;29;20061;-76
2021/05/17 07:54:16;;;;;;;0.00;0.00;;;14.70;68.10;;;;;;4877094;29;20057;-76
2021/05/17 07:56:42;;;;;;;0.00;0.00;;;14.80;68.60;;;;;;4869409;29;20064;-76
2021/05/17 07:59:09;;;;;;;0.00;0.00;;;14.80;67.80;;;;;;4877128;29;20520;-76
2021/05/17 08:01:35;;;;;;;0.00;0.00;;;14.70;67.50;;;;;;4863947;29;20874;-76
2021/05/17 08:04:02;;;;;;;0.00;0.00;;;14.70;67.30;;;;;;4874572;29;20535;-76
2021/05/17 08:06:28;;;;;;;0.00;0.00;;;14.60;67.40;;;;;;4864469;29;20108;-76
2021/05/17 08:08:55;;;;;;;0.00;0.00;;;14.60;67.40;;;;;;4870600;29;20096;-76
2021/05/17 08:11:21;;;;;;;0.00;0.00;;;14.60;67.70;;;;;;4857616;29;20057;-75
2021/05/17 08:13:48;;;;;;;0.00;0.00;;;14.70;67.00;;;;;;4857521;29;20057;-76
2021/05/17 08:16:15;;;;;;;0.00;0.00;;;14.90;66.90;;;;;;4857101;29;20053;-76
2021/05/17 08:18:43;;;;;;;0.00;0.00;;;15.20;66.60;;;;;;4860198;29;20061;-76
2021/05/17 08:21:10;;;;;;;0.00;0.00;;;15.60;65.90;;;;;;4858503;29;20057;-75
2021/05/17 08:23:59;;;;;;;0.00;0.00;;;16.00;63.50;;;;;;4857260;29;20060;-75
2021/05/17 08:26:26;;;;;;;0.00;0.00;;;16.40;62.50;;;;;;4864216;29;20057;-76
2021/05/17 08:28:53;;;;;;;0.00;0.00;;;16.70;62.00;;;;;;4875814;29;20064;-76
2021/05/17 08:31:22;;;;;;;0.00;0.00;;;16.90;60.60;;;;;;4875748;29;20053;-75
2021/05/17 08:33:49;;;;;;;0.00;0.00;;;17.20;60.30;;;;;;4872976;29;20418;-76
2021/05/17 08:36:16;;;;;;;0.00;0.00;;;17.50;59.50;;;;;;4856323;29;20503;-76
2021/05/17 08:38:43;;;;;;;0.00;0.00;;;17.70;57.40;;;;;;4859918;29;20064;-76
2021/05/17 08:41:13;;;;;;;0.00;0.00;;;17.80;55.90;;;;;;4855479;29;20130;-75
2021/05/17 08:43:41;;;;;;;0.00;0.00;;;17.80;56.30;;;;;;4855635;29;20193;-76
2021/05/17 08:46:09;;;;;;;0.00;0.00;;;17.80;56.00;;;;;;4855822;29;20063;-76
2021/05/17 08:48:48;;;;;;;0.00;0.00;;;17.80;56.70;;;;;;4853104;29;20584;-76
2021/05/17 08:51:16;;;;;;;0.00;0.00;;;18.10;56.20;;;;;;4853617;29;20060;-76
2021/05/17 08:53:45;;;;;;;0.00;0.00;;;18.30;54.50;;;;;;4856070;29;20099;-76
2021/05/17 08:56:11;;;;;;;0.00;0.00;;;18.10;53.60;;;;;;4855278;29;20053;-76
2021/05/17 08:58:38;;;;;;;0.00;0.00;;;17.90;53.90;;;;;;4854672;29;20058;-75
2021/05/17 09:01:04;;;;;;;0.00;0.00;;;17.70;54.40;;;;;;4855324;29;20513;-76
2021/05/17 09:03:31;;;;;;;0.00;0.00;;;17.60;55.10;;;;;;4855136;29;20430;-76
2021/05/17 09:06:04;;;;;;;0.00;0.00;;;17.50;55.80;;;;;;4855247;29;20053;-76
2021/05/17 09:08:31;;;;;;;0.00;0.00;;;17.70;56.30;;;;;;4845407;29;20057;-76
2021/05/17 09:10:57;;;;;;;0.00;0.00;;;18.00;56.20;;;;;;4855653;29;20073;-76
2021/05/17 09:13:24;;;;;;;0.00;0.00;;;18.00;55.00;;;;;;4855638;29;20065;-76
2021/05/17 09:15:52;;;;;;;0.00;0.00;;;17.90;54.60;;;;;;4839167;29;20076;-77
2021/05/17 09:18:21;;;;;;;0.00;0.00;;;18.00;54.70;;;;;;4855019;29;20494;-76
2021/05/17 09:20:50;;;;;;;0.00;0.00;;;18.30;55.70;;;;;;4855641;29;20461;-76
2021/05/17 09:23:19;;;;;;;0.00;0.00;;;19.10;54.80;;;;;;4855257;29;20502;-76
2021/05/17 09:26:07;;;;;;;0.00;0.00;;;19.30;51.20;;;;;;4853698;29;20598;-76
2021/05/17 09:28:45;;;;;;;0.00;0.00;;;19.30;50.70;;;;;;4848622;29;20522;-75
2021/05/17 09:31:21;;;;;;;0.00;0.00;;;19.90;51.30;;;;;;4855865;29;20136;-76
2021/05/17 09:33:49;;;;;;;0.00;0.00;;;20.50;48.80;;;;;;4854872;29;20122;-75
2021/05/17 09:36:23;;;;;;;0.00;0.00;;;20.60;48.30;;;;;;4855972;29;20069;-75
2021/05/17 09:39:16;;;;;;;0.00;0.00;;;20.80;47.30;;;;;;4856226;29;20198;-73
2021/05/17 09:41:46;;;;;;;0.00;0.00;;;21.30;47.10;;;;;;4855733;29;20521;-75
2021/05/17 09:44:15;;;;;;;0.00;0.00;;;21.90;46.20;;;;;;4855284;29;20053;-75
2021/05/17 09:46:58;;;;;;;0.00;0.00;;;22.10;44.20;;;;;;4858976;29;20157;-75
2021/05/17 09:49:32;;;;;;;0.00;0.00;;;22.20;43.80;;;;;;4838615;29;20136;-75
2021/05/17 09:52:08;;;;;;;0.00;0.00;;;22.20;42.80;;;;;;4855308;29;20529;-76
2021/05/17 09:54:55;;;;;;;0.00;0.00;;;22.20;42.50;;;;;;4854573;29;20136;-75
2021/05/17 09:57:23;;;;;;;0.00;0.00;;;21.70;42.00;;;;;;4855293;29;20064;-76
2021/05/17 09:59:52;;;;;;;0.00;0.00;;;21.00;43.40;;;;;;4853870;29;20054;-75
2021/05/17 10:02:27;;;;;;;0.00;0.00;;;20.60;45.20;;;;;;4847754;29;20053;-76
2021/05/17 10:04:54;;;;;;;0.00;0.00;;;20.60;44.10;;;;;;4854820;29;20060;-75
2021/05/17 10:07:22;;;;;;;0.00;0.00;;;20.40;44.90;;;;;;4854735;29;20482;-75
2021/05/17 10:09:48;;;;;;;0.00;0.00;;;19.90;45.40;;;;;;4854745;29;20124;-76
2021/05/17 10:12:15;;;;;;;0.00;0.00;;;19.40;47.20;;;;;;4854935;29;20140;-75
2021/05/17 10:14:42;;;;;;;0.00;0.00;;;19.50;49.30;;;;;;4854197;29;20057;-76
2021/05/17 10:17:08;;;;;;;0.00;0.00;;;20.00;48.30;;;;;;4853833;29;20526;-76
2021/05/17 10:19:35;;;;;;;0.00;0.00;;;20.10;47.30;;;;;;4844892;29;20386;-75
2021/05/17 10:22:01;;;;;;;0.00;0.00;;;20.00;47.70;;;;;;4851378;29;20049;-76
2021/05/17 10:24:28;;;;;;;0.00;0.00;;;20.20;47.50;;;;;;4854704;29;20525;-75
2021/05/17 10:26:55;;;;;;;0.00;0.00;;;20.10;46.70;;;;;;4855343;29;20057;-75
2021/05/17 10:29:33;;;;;;;0.00;0.00;;;20.00;46.40;;;;;;4840081;29;20061;-76
2021/05/17 10:32:01;;;;;;;0.00;0.00;;;19.70;46.50;;;;;;4855278;29;20080;-73
2021/05/17 10:34:27;;;;;;;0.00;0.00;;;19.40;47.60;;;;;;4859841;29;20049;-74
2021/05/17 10:37:02;;;;;;;0.00;0.00;;;19.30;48.40;;;;;;4857319;29;20375;-73
2021/05/17 10:39:41;;;;;;;0.00;0.00;;;18.90;49.10;;;;;;4857139;29;20061;-71
2021/05/17 10:48:11;;;;;;;0.00;0.00;;;18.20;52.30;;;;;;4857774;29;20136;-74
2021/05/17 10:50:39;;;;;;;0.00;0.00;;;18.00;51.90;;;;;;4858743;29;20482;-73
2021/05/17 10:53:05;;;;;;;0.00;0.00;;;17.90;52.00;;;;;;4859068;29;20057;-73
2021/05/17 10:55:34;;;;;;;0.00;0.00;;;17.70;52.60;;;;;;4858897;29;20060;-73
2021/05/17 11:00:35;;;;;;;0.00;0.00;;;17.30;54.50;;;;;;4857650;29;20069;-73
2021/05/17 11:03:12;;;;;;;0.00;0.00;;;16.90;57.20;;;;;;4855268;29;20085;-74
2021/05/17 11:05:40;;;;;;;0.00;0.00;;;16.60;60.10;;;;;;4857467;29;20046;-73
2021/05/17 11:08:09;;;;;;;0.00;0.00;;;16.30;60.90;;;;;;4857895;29;20056;-73
2021/05/17 11:10:42;;;;;;;0.00;0.00;;;16.00;61.50;;;;;;4856825;29;20132;-73
2021/05/17 11:13:17;;;;;;;0.00;0.00;;;16.00;62.70;;;;;;4855927;29;20127;-74
2021/05/17 11:15:47;;;;;;;0.00;0.00;;;15.90;63.70;;;;;;4857651;29;20053;-75
2021/05/17 11:18:14;;;;;;;0.00;0.00;;;16.00;64.70;;;;;;4842795;29;20653;-75
2021/05/17 11:23:08;;;;;;;0.00;0.00;;;16.40;66.40;;;;;;4857711;29;20064;-75
2021/05/17 11:26:07;;;;;;;0.00;0.00;;;16.60;65.80;;;;;;4858433;29;20049;-75
2021/05/17 11:28:36;;;;;;;0.00;0.00;;;16.80;64.70;;;;;;4858049;29;20058;-75
2021/05/17 11:31:03;;;;;;;0.00;0.00;;;16.90;63.40;;;;;;4857821;29;20194;-75
2021/05/17 11:33:51;;;;;;;0.00;0.00;;;16.90;62.50;;;;;;4862483;29;20094;-75
2021/05/17 11:36:43;;;;;;;0.00;0.00;;;16.90;62.50;;;;;;4864047;29;20191;-75
2021/05/17 11:39:18;;;;;;;0.00;0.00;;;16.90;61.90;;;;;;4847882;29;20109;-75
2021/05/17 11:41:57;;;;;;;0.00;0.00;;;16.90;62.70;;;;;;4857166;29;20058;-75
2021/05/17 11:44:36;;;;;;;0.00;0.00;;;17.00;63.00;;;;;;4840993;29;20546;-75
2021/05/17 11:47:12;;;;;;;0.00;0.00;;;17.10;62.50;;;;;;4858496;29;20057;-75
2021/05/17 11:49:41;;;;;;;0.00;0.00;;;17.10;61.40;;;;;;4858573;29;20618;-75
2021/05/17 11:52:17;;;;;;;0.00;0.00;;;17.00;61.50;;;;;;4862055;29;20053;-75
2021/05/17 11:54:49;;;;;;;0.00;0.00;;;16.90;61.70;;;;;;4871411;29;20054;-75
2021/05/17 11:57:18;;;;;;;0.00;0.00;;;16.70;61.80;;;;;;4858101;29;20664;-75
2021/05/17 11:59:47;;;;;;;0.00;0.00;;;16.60;62.50;;;;;;4857978;29;20057;-75
2021/05/17 12:02:14;;;;;;;0.00;0.00;;;16.50;62.60;;;;;;4867482;29;20049;-75
2021/05/17 12:04:42;;;;;;;0.00;0.00;;;16.50;62.60;;;;;;4857687;29;20165;-75
2021/05/17 12:07:13;;;;;;;0.00;0.00;;;16.60;62.40;;;;;;4857046;29;20517;-75
2021/05/17 12:09:45;;;;;;;0.00;0.00;;;16.70;62.30;;;;;;4844348;29;20475;-74
2021/05/17 12:12:15;;;;;;;0.00;0.00;;;16.70;61.00;;;;;;4876481;29;20068;-74
2021/05/17 12:14:44;;;;;;;0.00;0.00;;;16.70;60.30;;;;;;4862433;29;20057;-72
2021/05/17 12:17:17;;;;;;;0.00;0.00;;;16.70;59.40;;;;;;4853026;29;20132;-71
2021/05/17 12:19:46;;;;;;;0.00;0.00;;;16.70;59.00;;;;;;4855710;29;20049;-72
2021/05/17 12:22:39;;;;;;;0.00;0.00;;;16.60;58.70;;;;;;4856988;29;20057;-71
2021/05/17 12:25:07;;;;;;;0.00;0.00;;;16.50;58.90;;;;;;4856667;29;20529;-71
2021/05/17 12:27:34;;;;;;;0.00;0.00;;;16.30;62.00;;;;;;4856573;29;20061;-72
2021/05/17 12:30:14;;;;;;;0.00;0.00;;;16.10;63.20;;;;;;4857084;29;20172;-75
2021/05/17 12:32:42;;;;;;;0.00;0.00;;;16.00;63.30;;;;;;4839801;29;20061;-76
2021/05/17 12:35:17;;;;;;;0.00;0.00;;;15.90;63.40;;;;;;4861100;29;20072;-75
2021/05/17 12:37:51;;;;;;;0.00;0.00;;;15.80;63.40;;;;;;4848868;29;20064;-75
2021/05/17 12:40:21;;;;;;;0.00;0.00;;;15.80;63.70;;;;;;4840198;29;20104;-75
2021/05/17 12:43:08;;;;;;;0.00;0.00;;;15.80;64.10;;;;;;4855934;29;20050;-75
2021/05/17 12:45:38;;;;;;;0.00;0.00;;;15.70;65.00;;;;;;4837309;29;20070;-75
2021/05/17 12:48:17;;;;;;;0.00;0.00;;;15.60;65.50;;;;;;4856191;29;20060;-72
2021/05/17 12:50:44;;;;;;;0.00;0.00;;;15.50;66.20;;;;;;4855099;29;20514;-78
2021/05/17 12:53:18;;;;;;;0.00;0.00;;;15.30;66.60;;;;;;4839533;29;20539;-78
2021/05/17 12:55:48;;;;;;;0.00;0.00;;;15.30;67.70;;;;;;4855180;29;20510;-75
2021/05/17 12:58:30;;;;;;;0.00;0.00;;;15.30;69.30;;;;;;4856490;29;20129;-75
2021/05/17 13:01:22;;;;;;;0.00;0.00;;;15.40;69.60;;;;;;4842538;29;20573;-76
2021/05/17 13:03:53;;;;;;;0.00;0.00;;;15.50;69.30;;;;;;4859737;29;20136;-76
2021/05/17 13:06:27;;;;;;;0.00;0.00;;;15.60;68.80;;;;;;4859623;29;20081;-76
2021/05/17 13:09:02;;;;;;;0.00;0.00;;;15.70;67.90;;;;;;4859267;29;20136;-76
2021/05/17 13:11:53;;;;;;;0.00;0.00;;;15.80;68.00;;;;;;4859306;29;20549;-76
2021/05/17 13:14:22;;;;;;;0.00;0.00;;;16.00;68.00;;;;;;4857634;29;20509;-76
2021/05/17 13:16:49;;;;;;;0.00;0.00;;;16.10;67.30;;;;;;4874015;29;20425;-76
2021/05/17 13:30:52;;;;;;;0.00;0.00;;;16.40;66.10;;;;;;4877265;29;20513;-76
2021/05/17 13:33:26;;;;;;;0.00;0.00;;;16.30;66.30;;;;;;4877543;29;20082;-75
2021/05/17 13:36:00;;;;;;;0.00;0.00;;;16.20;66.10;;;;;;4876828;29;20131;-75
2021/05/17 13:38:28;;;;;;;0.00;0.00;;;16.10;65.40;;;;;;4877630;29;20136;-76
2021/05/17 13:40:54;;;;;;;0.00;0.00;;;16.00;66.20;;;;;;4860027;29;20078;-76